createdAt,value
2023-05-02T00:00:10.766Z,13.90
2023-05-02T00:01:10.737Z,12.30
2023-05-02T00:02:10.769Z,12.90
2023-05-02T00:03:10.791Z,11.30
2023-05-02T00:04:10.792Z,12.00
2023-05-02T00:05:10.699Z,12.40
2023-05-02T00:06:10.694Z,11.40
2023-05-02T00:07:10.679Z,12.30
2023-05-02T00:08:10.640Z,12.10
2023-05-02T00:09:10.775Z,11.60
2023-05-02T00:10:10.601Z,12.30
2023-05-02T00:11:10.603Z,15.00
2023-05-02T00:12:10.603Z,12.20
2023-05-02T00:13:10.588Z,12.80
2023-05-02T00:14:10.566Z,13.00
2023-05-02T00:15:10.555Z,11.20
2023-05-02T00:16:10.537Z,12.50
2023-05-02T00:17:10.557Z,12.90
2023-05-02T00:18:10.535Z,11.00
2023-05-02T00:19:10.505Z,12.40
2023-05-02T00:20:10.478Z,11.80
2023-05-02T00:21:10.482Z,11.80
2023-05-02T00:22:10.466Z,11.10
2023-05-02T00:23:10.437Z,11.60
2023-05-02T00:24:10.424Z,13.20
2023-05-02T00:25:10.441Z,12.30
2023-05-02T00:26:10.394Z,12.00
2023-05-02T00:27:10.408Z,11.50
2023-05-02T00:28:10.385Z,11.20
2023-05-02T00:29:10.372Z,12.30
2023-05-02T00:30:10.352Z,11.90
2023-05-02T00:31:10.509Z,12.20
2023-05-02T00:32:10.481Z,11.50
2023-05-02T00:33:10.381Z,12.70
2023-05-02T00:34:10.303Z,12.60
2023-05-02T00:35:10.302Z,13.60
2023-05-02T00:36:10.262Z,13.10
2023-05-02T00:37:10.272Z,15.00
2023-05-02T00:38:10.266Z,12.80
2023-05-02T00:39:10.249Z,13.70
2023-05-02T00:40:10.215Z,13.60
2023-05-02T00:41:10.202Z,14.40
2023-05-02T00:42:10.204Z,12.70
2023-05-02T00:43:10.189Z,12.60
2023-05-02T00:44:10.163Z,12.50
2023-05-02T00:45:10.171Z,14.40
2023-05-02T00:46:10.172Z,12.40
2023-05-02T00:47:10.155Z,13.00
2023-05-02T00:48:10.174Z,12.10
2023-05-02T00:49:10.108Z,13.10
2023-05-02T00:50:10.107Z,13.10
2023-05-02T00:51:10.077Z,13.40
2023-05-02T00:52:10.081Z,12.50
2023-05-02T00:53:10.056Z,12.90
2023-05-02T00:54:10.037Z,13.10
2023-05-02T00:55:10.031Z,14.30
2023-05-02T00:56:10.034Z,14.20
2023-05-02T00:57:10.020Z,12.80
2023-05-02T00:58:09.993Z,11.20
2023-05-02T00:59:09.981Z,12.20
2023-05-02T01:00:09.946Z,13.00
2023-05-02T01:01:10.014Z,11.80
2023-05-02T01:02:10.057Z,11.50
2023-05-02T01:03:09.979Z,13.30
2023-05-02T01:04:09.993Z,12.50
2023-05-02T01:05:09.892Z,12.50
2023-05-02T01:06:09.896Z,11.00
2023-05-02T01:07:09.868Z,11.20
2023-05-02T01:08:09.860Z,13.50
2023-05-02T01:09:09.838Z,11.90
2023-05-02T01:10:09.834Z,12.40
2023-05-02T01:11:09.828Z,11.80
2023-05-02T01:12:09.798Z,11.90
2023-05-02T01:13:09.808Z,14.40
2023-05-02T01:14:09.762Z,11.30
2023-05-02T01:15:09.759Z,11.50
2023-05-02T01:16:09.827Z,11.50
2023-05-02T01:17:09.732Z,11.70
2023-05-02T01:18:09.815Z,11.00
2023-05-02T01:19:09.711Z,11.80
2023-05-02T01:20:09.701Z,10.30
2023-05-02T01:21:09.693Z,11.50
2023-05-02T01:22:09.662Z,10.00
2023-05-02T01:23:09.653Z,11.60
2023-05-02T01:24:09.621Z,11.50
2023-05-02T01:25:09.668Z,11.00
2023-05-02T01:26:09.624Z,11.30
2023-05-02T01:27:09.622Z,10.20
2023-05-02T01:28:09.595Z,10.90
2023-05-02T01:29:09.584Z,9.60
2023-05-02T01:30:09.575Z,10.70
2023-05-02T01:31:09.586Z,10.10
2023-05-02T01:32:09.536Z,9.60
2023-05-02T01:33:09.550Z,11.40
2023-05-02T01:34:09.499Z,9.20
2023-05-02T01:35:09.519Z,10.00
2023-05-02T01:36:09.479Z,9.20
2023-05-02T01:37:09.461Z,9.70
2023-05-02T01:38:09.451Z,10.70
2023-05-02T01:39:09.449Z,11.00
2023-05-02T01:40:09.443Z,11.10
2023-05-02T01:41:09.439Z,10.80
2023-05-02T01:42:09.405Z,11.40
2023-05-02T01:43:09.406Z,11.80
2023-05-02T01:44:09.385Z,10.10
2023-05-02T01:45:09.378Z,11.30
2023-05-02T01:46:09.373Z,9.90
2023-05-02T01:47:09.570Z,10.30
2023-05-02T01:48:09.391Z,9.40
2023-05-02T01:49:09.363Z,10.20
2023-05-02T01:50:09.315Z,9.80
2023-05-02T01:51:09.321Z,9.00
2023-05-02T01:52:09.278Z,9.80
2023-05-02T01:53:09.265Z,9.70
2023-05-02T01:54:09.245Z,10.50
2023-05-02T01:55:09.254Z,11.50
2023-05-02T01:56:09.237Z,10.50
2023-05-02T01:57:09.214Z,10.50
2023-05-02T01:58:09.200Z,11.10
2023-05-02T01:59:09.221Z,10.80
2023-05-02T02:00:09.178Z,9.90
2023-05-02T02:01:09.222Z,9.00
2023-05-02T02:02:09.152Z,10.00
2023-05-02T02:03:09.160Z,10.30
2023-05-02T02:04:09.167Z,10.50
2023-05-02T02:05:09.096Z,9.40
2023-05-02T02:06:09.142Z,10.30
2023-05-02T02:07:09.081Z,10.80
2023-05-02T02:08:09.123Z,9.90
2023-05-02T02:09:09.053Z,9.00
2023-05-02T02:10:09.053Z,14.70
2023-05-02T02:11:09.047Z,10.20
2023-05-02T02:12:08.996Z,9.80
2023-05-02T02:13:09.013Z,10.40
2023-05-02T02:14:08.994Z,11.10
2023-05-02T02:15:08.996Z,10.30
2023-05-02T02:16:09.099Z,9.20
2023-05-02T02:17:08.957Z,9.20
2023-05-02T02:18:08.972Z,10.70
2023-05-02T02:19:08.916Z,11.00
2023-05-02T02:20:08.914Z,10.50
2023-05-02T02:21:08.909Z,10.10
2023-05-02T02:22:08.900Z,9.60
2023-05-02T02:23:08.876Z,10.10
2023-05-02T02:24:08.855Z,10.80
2023-05-02T02:25:08.837Z,9.40
2023-05-02T02:26:08.847Z,11.00
2023-05-02T02:27:08.828Z,11.50
2023-05-02T02:28:08.800Z,10.30
2023-05-02T02:29:08.794Z,10.00
2023-05-02T02:30:08.769Z,9.80
2023-05-02T02:31:08.773Z,10.50
2023-05-02T02:32:08.753Z,11.40
2023-05-02T02:33:08.805Z,12.10
2023-05-02T02:34:08.706Z,11.00
2023-05-02T02:35:08.720Z,11.40
2023-05-02T02:36:08.712Z,14.00
2023-05-02T02:37:08.699Z,11.90
2023-05-02T02:38:08.670Z,9.60
2023-05-02T02:39:08.672Z,9.20
2023-05-02T02:40:08.686Z,11.30
2023-05-02T02:41:08.657Z,10.80
2023-05-02T02:42:08.635Z,10.10
2023-05-02T02:43:08.614Z,10.50
2023-05-02T02:44:08.605Z,10.10
2023-05-02T02:45:08.584Z,9.10
2023-05-02T02:46:08.622Z,8.80
2023-05-02T02:47:08.554Z,9.10
2023-05-02T02:48:08.557Z,11.40
2023-05-02T02:49:08.524Z,10.70
2023-05-02T02:50:08.549Z,11.30
2023-05-02T02:51:08.504Z,8.90
2023-05-02T02:52:08.486Z,10.60
2023-05-02T02:53:08.499Z,7.60
2023-05-02T02:54:23.060Z,9.30
2023-05-02T02:55:09.456Z,9.40
2023-05-02T02:56:08.427Z,8.20
2023-05-02T02:57:08.423Z,8.70
2023-05-02T02:58:08.403Z,8.70
2023-05-02T02:59:08.387Z,9.40
2023-05-02T03:00:08.406Z,9.60
2023-05-02T03:01:08.406Z,10.20
2023-05-02T03:02:08.602Z,7.70
2023-05-02T03:03:08.361Z,6.90
2023-05-02T03:04:08.410Z,9.30
2023-05-02T03:05:08.328Z,8.10
2023-05-02T03:06:08.310Z,8.90
2023-05-02T03:07:08.289Z,11.60
2023-05-02T03:08:08.260Z,8.50
2023-05-02T03:09:08.245Z,7.00
2023-05-02T03:10:08.255Z,10.50
2023-05-02T03:11:08.239Z,10.20
2023-05-02T03:12:08.226Z,8.40
2023-05-02T03:13:08.208Z,9.00
2023-05-02T03:14:08.200Z,14.20
2023-05-02T03:15:08.191Z,11.40
2023-05-02T03:16:08.203Z,7.30
2023-05-02T03:17:08.155Z,7.70
2023-05-02T03:18:08.210Z,6.30
2023-05-02T03:19:08.127Z,6.60
2023-05-02T03:20:08.139Z,6.90
2023-05-02T03:21:08.103Z,8.90
2023-05-02T03:22:08.097Z,7.30
2023-05-02T03:23:08.070Z,7.30
2023-05-02T03:24:08.096Z,9.60
2023-05-02T03:25:08.074Z,6.80
2023-05-02T03:26:08.046Z,7.60
2023-05-02T03:27:08.028Z,8.60
2023-05-02T03:28:08.035Z,7.40
2023-05-02T03:29:08.001Z,6.70
2023-05-02T03:30:08.002Z,6.80
2023-05-02T03:31:07.991Z,7.00
2023-05-02T03:32:08.005Z,8.50
2023-05-02T03:33:08.026Z,9.00
2023-05-02T03:34:07.946Z,7.70
2023-05-02T03:35:07.948Z,9.80
2023-05-02T03:36:07.908Z,8.70
2023-05-02T03:37:07.879Z,10.20
2023-05-02T03:38:07.910Z,8.50
2023-05-02T03:39:07.919Z,9.80
2023-05-02T03:40:07.886Z,9.80
2023-05-02T03:41:07.854Z,8.50
2023-05-02T03:42:07.822Z,6.30
2023-05-02T03:43:07.798Z,8.60
2023-05-02T03:44:07.820Z,8.30
2023-05-02T03:45:07.800Z,8.60
2023-05-02T03:46:07.792Z,8.30
2023-05-02T03:47:07.865Z,9.00
2023-05-02T03:48:07.846Z,8.20
2023-05-02T03:49:07.728Z,8.00
2023-05-02T03:50:07.786Z,9.40
2023-05-02T03:51:07.747Z,8.70
2023-05-02T03:52:07.697Z,10.50
2023-05-02T03:53:07.667Z,9.30
2023-05-02T03:54:07.700Z,8.00
2023-05-02T03:55:07.690Z,9.10
2023-05-02T03:56:07.641Z,8.80
2023-05-02T03:57:07.625Z,9.30
2023-05-02T03:58:07.664Z,6.20
2023-05-02T03:59:07.586Z,7.90
2023-05-02T04:00:07.631Z,7.70
2023-05-02T04:01:07.595Z,8.60
2023-05-02T04:02:07.608Z,8.00
2023-05-02T04:03:07.588Z,6.40
2023-05-02T04:04:07.638Z,8.40
2023-05-02T04:05:07.540Z,8.80
2023-05-02T04:06:07.560Z,7.70
2023-05-02T04:07:07.492Z,8.30
2023-05-02T04:08:07.486Z,11.00
2023-05-02T04:09:07.477Z,8.90
2023-05-02T04:10:07.567Z,8.00
2023-05-02T04:11:07.432Z,9.20
2023-05-02T04:12:07.446Z,11.00
2023-05-02T04:13:07.422Z,9.40
2023-05-02T04:14:07.413Z,7.70
2023-05-02T04:15:07.450Z,8.30
2023-05-02T04:16:07.382Z,8.30
2023-05-02T04:17:07.498Z,8.70
2023-05-02T04:18:07.418Z,10.30
2023-05-02T04:19:07.343Z,8.80
2023-05-02T04:20:07.666Z,8.30
2023-05-02T04:21:07.301Z,8.30
2023-05-02T04:22:07.319Z,7.20
2023-05-02T04:23:07.270Z,9.00
2023-05-02T04:24:07.279Z,9.40
2023-05-02T04:25:07.290Z,6.60
2023-05-02T04:26:07.309Z,7.10
2023-05-02T04:27:07.228Z,6.80
2023-05-02T04:28:07.273Z,10.60
2023-05-02T04:29:07.196Z,9.30
2023-05-02T04:30:07.213Z,11.30
2023-05-02T04:31:07.221Z,10.90
2023-05-02T04:32:07.181Z,9.40
2023-05-02T04:33:07.203Z,8.60
2023-05-02T04:34:07.135Z,12.40
2023-05-02T04:35:07.139Z,9.70
2023-05-02T04:36:07.102Z,10.00
2023-05-02T04:37:07.090Z,8.20
2023-05-02T04:38:07.090Z,11.00
2023-05-02T04:39:07.082Z,11.50
2023-05-02T04:40:07.082Z,12.00
2023-05-02T04:41:09.094Z,9.40
2023-05-02T04:42:07.033Z,11.70
2023-05-02T04:43:07.030Z,11.70
2023-05-02T04:44:07.028Z,9.10
2023-05-02T04:45:07.058Z,11.00
2023-05-02T04:46:07.035Z,9.70
2023-05-02T04:47:06.966Z,12.50
2023-05-02T04:48:07.011Z,8.70
2023-05-02T04:49:06.936Z,10.70
2023-05-02T04:50:06.929Z,10.50
2023-05-02T04:51:06.915Z,8.60
2023-05-02T04:52:06.891Z,10.90
2023-05-02T04:53:06.882Z,11.40
2023-05-02T04:54:06.887Z,8.70
2023-05-02T04:55:06.893Z,10.50
2023-05-02T04:56:06.838Z,10.00
2023-05-02T04:57:06.932Z,9.40
2023-05-02T04:58:06.830Z,11.20
2023-05-02T04:59:06.812Z,9.30
2023-05-02T05:00:06.825Z,9.90
2023-05-02T05:01:06.787Z,11.00
2023-05-02T05:02:06.804Z,10.70
2023-05-02T05:03:06.835Z,10.50
2023-05-02T05:04:06.889Z,12.10
2023-05-02T05:05:06.949Z,8.30
2023-05-02T05:06:06.785Z,9.30
2023-05-02T05:07:06.746Z,10.60
2023-05-02T05:08:06.694Z,10.40
2023-05-02T05:09:06.705Z,9.90
2023-05-02T05:10:06.689Z,13.40
2023-05-02T05:11:06.657Z,10.70
2023-05-02T05:12:06.647Z,8.80
2023-05-02T05:13:06.642Z,9.30
2023-05-02T05:14:06.620Z,9.00
2023-05-02T05:15:06.626Z,10.40
2023-05-02T05:16:06.655Z,8.80
2023-05-02T05:17:06.577Z,9.40
2023-05-02T05:18:06.609Z,11.60
2023-05-02T05:19:06.550Z,10.80
2023-05-02T05:20:08.959Z,8.20
2023-05-02T05:21:06.517Z,10.70
2023-05-02T05:22:06.564Z,9.60
2023-05-02T05:23:06.486Z,10.20
2023-05-02T05:24:06.499Z,11.40
2023-05-02T05:25:06.585Z,8.00
2023-05-02T05:26:06.457Z,9.70
2023-05-02T05:27:06.447Z,8.10
2023-05-02T05:28:06.439Z,8.60
2023-05-02T05:29:06.403Z,7.30
2023-05-02T05:30:06.433Z,6.70
2023-05-02T05:31:06.412Z,6.50
2023-05-02T05:32:06.542Z,9.10
2023-05-02T05:33:06.416Z,11.90
2023-05-02T05:34:06.388Z,8.80
2023-05-02T05:35:06.364Z,8.40
2023-05-02T05:36:06.342Z,7.90
2023-05-02T05:37:06.304Z,7.00
2023-05-02T05:38:06.316Z,8.90
2023-05-02T05:39:06.321Z,8.40
2023-05-02T05:40:06.288Z,6.40
2023-05-02T05:41:06.270Z,6.20
2023-05-02T05:42:06.248Z,7.70
2023-05-02T05:43:06.215Z,9.70
2023-05-02T05:44:06.231Z,7.90
2023-05-02T05:45:06.220Z,9.20
2023-05-02T05:46:06.252Z,9.40
2023-05-02T05:47:06.225Z,6.90
2023-05-02T05:48:06.227Z,8.50
2023-05-02T05:49:06.165Z,8.20
2023-05-02T05:50:06.185Z,7.10
2023-05-02T05:51:06.134Z,6.50
2023-05-02T05:52:06.110Z,7.80
2023-05-02T05:53:06.103Z,8.20
2023-05-02T05:54:06.101Z,7.10
2023-05-02T05:55:06.081Z,10.00
2023-05-02T05:56:06.082Z,12.70
2023-05-02T05:57:06.024Z,10.00
2023-05-02T05:58:06.044Z,10.80
2023-05-02T05:59:06.036Z,11.00
2023-05-02T06:00:06.015Z,10.40
2023-05-02T06:01:06.015Z,9.20
2023-05-02T06:02:06.052Z,8.70
2023-05-02T06:03:08.148Z,12.60
2023-05-02T06:04:06.099Z,8.30
2023-05-02T06:05:05.992Z,10.50
2023-05-02T06:06:06.012Z,11.30
2023-05-02T06:07:05.905Z,10.60
2023-05-02T06:08:05.903Z,8.80
2023-05-02T06:09:05.910Z,13.40
2023-05-02T06:10:05.867Z,11.20
2023-05-02T06:11:05.849Z,15.20
2023-05-02T06:12:05.856Z,12.10
2023-05-02T06:13:05.825Z,10.90
2023-05-02T06:14:05.905Z,7.00
2023-05-02T06:15:05.833Z,10.60
2023-05-02T06:16:05.809Z,9.50
2023-05-02T06:17:05.775Z,12.30
2023-05-02T06:18:05.833Z,13.50
2023-05-02T06:19:05.758Z,8.80
2023-05-02T06:20:05.744Z,9.80
2023-05-02T06:21:05.734Z,9.20
2023-05-02T06:22:05.752Z,8.30
2023-05-02T06:23:05.705Z,7.00
2023-05-02T06:24:05.696Z,10.00
2023-05-02T06:25:05.679Z,8.70
2023-05-02T06:26:05.719Z,10.60
2023-05-02T06:27:05.672Z,9.70
2023-05-02T06:28:05.797Z,8.60
2023-05-02T06:29:05.680Z,11.50
2023-05-02T06:30:05.632Z,13.20
2023-05-02T06:31:05.726Z,11.30
2023-05-02T06:32:05.702Z,12.60
2023-05-02T06:33:05.663Z,9.40
2023-05-02T06:34:05.594Z,8.90
2023-05-02T06:35:05.559Z,8.10
2023-05-02T06:36:05.577Z,10.70
2023-05-02T06:37:05.516Z,12.50
2023-05-02T06:38:05.531Z,6.20
2023-05-02T06:39:05.533Z,8.00
2023-05-02T06:40:05.511Z,8.90
2023-05-02T06:41:05.468Z,9.30
2023-05-02T06:42:05.475Z,8.40
2023-05-02T06:43:05.457Z,8.30
2023-05-02T06:44:05.467Z,9.90
2023-05-02T06:45:05.422Z,8.30
2023-05-02T06:46:05.403Z,8.50
2023-05-02T06:47:05.457Z,9.50
2023-05-02T06:48:05.400Z,10.60
2023-05-02T06:49:05.373Z,8.50
2023-05-02T06:50:05.376Z,11.80
2023-05-02T06:51:05.327Z,8.60
2023-05-02T06:52:05.318Z,9.30
2023-05-02T06:53:05.326Z,7.20
2023-05-02T06:54:05.310Z,8.80
2023-05-02T06:55:05.275Z,8.00
2023-05-02T06:56:05.282Z,8.80
2023-05-02T06:57:05.736Z,8.80
2023-05-02T06:58:05.256Z,9.90
2023-05-02T06:59:06.225Z,12.10
2023-05-02T07:00:06.176Z,10.70
2023-05-02T07:01:05.514Z,9.50
2023-05-02T07:02:06.030Z,8.30
2023-05-02T07:03:05.652Z,9.00
2023-05-02T07:04:05.917Z,8.60
2023-05-02T07:05:05.411Z,10.00
2023-05-02T07:06:05.971Z,7.60
2023-05-02T07:07:05.121Z,9.40
2023-05-02T07:08:05.127Z,8.00
2023-05-02T07:09:05.121Z,8.10
2023-05-02T07:10:05.087Z,8.00
2023-05-02T07:11:05.100Z,7.70
2023-05-02T07:12:06.939Z,8.10
2023-05-02T07:13:05.058Z,9.00
2023-05-02T07:14:05.054Z,8.10
2023-05-02T07:15:05.024Z,7.90
2023-05-02T07:16:05.035Z,10.00
2023-05-02T07:17:05.023Z,11.70
2023-05-02T07:18:05.005Z,9.20
2023-05-02T07:19:04.975Z,8.70
2023-05-02T07:20:05.297Z,10.10
2023-05-02T07:21:04.956Z,9.00
2023-05-02T07:22:04.949Z,10.40
2023-05-02T07:23:04.902Z,9.30
2023-05-02T07:24:04.903Z,9.80
2023-05-02T07:25:04.898Z,12.00
2023-05-02T07:26:06.211Z,10.50
2023-05-02T07:27:04.864Z,10.20
2023-05-02T07:28:04.836Z,7.70
2023-05-02T07:29:04.861Z,8.30
2023-05-02T07:30:04.835Z,7.60
2023-05-02T07:31:04.815Z,7.60
2023-05-02T07:32:04.816Z,8.40
2023-05-02T07:33:04.852Z,9.90
2023-05-02T07:34:04.791Z,8.20
2023-05-02T07:35:04.746Z,7.40
2023-05-02T07:36:04.756Z,8.90
2023-05-02T07:37:04.740Z,7.80
2023-05-02T07:38:04.737Z,8.30
2023-05-02T07:39:04.738Z,8.00
2023-05-02T07:40:05.086Z,9.20
2023-05-02T07:41:04.676Z,8.20
2023-05-02T07:42:04.668Z,8.80
2023-05-02T07:43:04.679Z,6.20
2023-05-02T07:44:04.658Z,7.70
2023-05-02T07:45:04.642Z,7.00
2023-05-02T07:46:04.669Z,6.70
2023-05-02T07:47:04.623Z,7.70
2023-05-02T07:48:04.627Z,7.60
2023-05-02T07:49:04.602Z,7.80
2023-05-02T07:50:04.813Z,8.40
2023-05-02T07:51:04.581Z,8.50
2023-05-02T07:52:04.597Z,7.60
2023-05-02T07:53:04.529Z,8.40
2023-05-02T07:54:04.512Z,6.20
2023-05-02T07:55:04.501Z,8.60
2023-05-02T07:56:04.489Z,7.20
2023-05-02T07:57:04.464Z,6.80
2023-05-02T07:58:04.454Z,7.50
2023-05-02T07:59:05.644Z,7.90
2023-05-02T08:00:04.665Z,8.90
2023-05-02T08:01:04.454Z,7.60
2023-05-02T08:02:04.415Z,8.00
2023-05-02T08:03:05.335Z,8.10
2023-05-02T08:04:04.664Z,9.40
2023-05-02T08:05:04.418Z,9.10
2023-05-02T08:06:04.388Z,8.00
2023-05-02T08:07:04.337Z,8.30
2023-05-02T08:08:04.342Z,7.70
2023-05-02T08:09:04.326Z,8.10
2023-05-02T08:10:04.576Z,10.10
2023-05-02T08:11:04.298Z,9.60
2023-05-02T08:12:04.280Z,9.00
2023-05-02T08:13:04.279Z,10.00
2023-05-02T08:14:04.263Z,10.10
2023-05-02T08:15:04.250Z,7.50
2023-05-02T08:16:04.302Z,9.30
2023-05-02T08:17:04.226Z,8.50
2023-05-02T08:18:04.260Z,10.50
2023-05-02T08:19:04.194Z,8.00
2023-05-02T08:20:04.871Z,9.90
2023-05-02T08:21:04.170Z,8.60
2023-05-02T08:22:06.007Z,7.70
2023-05-02T08:23:07.507Z,9.20
2023-05-02T08:24:05.640Z,10.00
2023-05-02T08:25:05.187Z,10.20
2023-05-02T08:26:05.485Z,9.90
2023-05-02T08:27:05.549Z,10.00
2023-05-02T08:28:05.797Z,8.20
2023-05-02T08:29:05.251Z,10.20
2023-05-02T08:30:04.765Z,10.70
2023-05-02T08:31:05.217Z,10.60
2023-05-02T08:32:05.640Z,10.10
2023-05-02T08:33:05.457Z,8.60
2023-05-02T08:34:05.161Z,8.60
2023-05-02T08:35:05.096Z,9.60
2023-05-02T08:36:05.667Z,8.70
2023-05-02T08:37:04.653Z,9.00
2023-05-02T08:38:03.928Z,9.90
2023-05-02T08:39:05.077Z,8.40
2023-05-02T08:40:05.160Z,8.90
2023-05-02T08:41:05.381Z,11.50
2023-05-02T08:42:04.565Z,9.90
2023-05-02T08:43:06.536Z,11.50
2023-05-02T08:44:05.520Z,10.90
2023-05-02T08:45:04.162Z,19.00
2023-05-02T08:46:04.624Z,25.60
2023-05-02T08:47:05.576Z,17.50
2023-05-02T08:48:05.227Z,13.80
2023-05-02T08:49:05.586Z,12.30
2023-05-02T08:50:05.178Z,11.10
2023-05-02T08:51:04.785Z,10.80
2023-05-02T08:52:04.535Z,12.30
2023-05-02T08:53:05.310Z,14.30
2023-05-02T08:54:05.050Z,13.20
2023-05-02T08:55:04.999Z,14.40
2023-05-02T08:56:05.002Z,13.80
2023-05-02T08:57:05.212Z,12.30
2023-05-02T08:58:05.319Z,12.80
2023-05-02T08:59:04.860Z,13.90
2023-05-02T09:00:09.798Z,16.30
2023-05-02T09:01:04.329Z,12.60
2023-05-02T09:02:05.488Z,10.80
2023-05-02T09:03:04.778Z,16.20
2023-05-02T09:04:05.482Z,13.10
2023-05-02T09:05:05.550Z,14.80
2023-05-02T09:06:05.746Z,12.60
2023-05-02T09:07:06.423Z,14.00
2023-05-02T09:08:04.237Z,12.50
2023-05-02T09:09:04.961Z,12.20
2023-05-02T09:10:04.944Z,12.70
2023-05-02T09:11:06.018Z,12.70
2023-05-02T09:12:04.988Z,12.20
2023-05-02T09:13:05.405Z,13.80
2023-05-02T09:14:05.489Z,11.60
2023-05-02T09:15:05.016Z,11.20
2023-05-02T09:16:07.117Z,12.30
2023-05-02T09:17:04.462Z,11.60
2023-05-02T09:18:06.410Z,10.00
2023-05-02T09:19:04.528Z,13.30
2023-05-02T09:20:05.088Z,12.20
2023-05-02T09:21:04.556Z,12.20
2023-05-02T09:22:04.654Z,11.10
2023-05-02T09:23:04.947Z,11.80
2023-05-02T09:24:04.687Z,12.70
2023-05-02T09:25:08.852Z,11.80
2023-05-02T09:26:04.731Z,13.80
2023-05-02T09:27:04.329Z,12.60
2023-05-02T09:28:08.741Z,15.10
2023-05-02T09:29:04.754Z,12.10
2023-05-02T09:30:04.460Z,11.60
2023-05-02T09:31:04.594Z,11.90
2023-05-02T09:32:04.156Z,11.90
2023-05-02T09:33:04.350Z,13.10
2023-05-02T09:34:04.582Z,16.20
2023-05-02T09:35:05.105Z,19.90
2023-05-02T09:36:08.176Z,22.80
2023-05-02T09:37:05.532Z,15.60
2023-05-02T09:38:07.275Z,15.80
2023-05-02T09:39:08.722Z,14.80
2023-05-02T09:40:06.381Z,12.70
2023-05-02T09:41:05.481Z,13.70
2023-05-02T09:42:05.423Z,14.20
2023-05-02T09:43:05.138Z,12.30
2023-05-02T09:44:04.856Z,14.70
2023-05-02T09:45:04.837Z,15.40
2023-05-02T09:46:05.130Z,16.30
2023-05-02T09:47:04.896Z,15.60
2023-05-02T09:48:06.044Z,16.70
2023-05-02T09:49:04.624Z,16.00
2023-05-02T09:50:05.419Z,17.20
2023-05-02T09:51:03.745Z,15.40
2023-05-02T09:52:04.913Z,15.50
2023-05-02T09:53:05.638Z,14.40
2023-05-02T09:54:04.152Z,12.80
2023-05-02T09:55:05.468Z,15.40
2023-05-02T09:56:05.376Z,16.10
2023-05-02T09:57:05.311Z,16.20
2023-05-02T09:58:05.944Z,13.20
2023-05-02T09:59:02.876Z,12.50
2023-05-02T10:00:02.835Z,14.50
2023-05-02T10:01:02.855Z,15.00
2023-05-02T10:02:03.163Z,15.60
2023-05-02T10:03:02.867Z,15.80
2023-05-02T10:04:05.312Z,17.30
2023-05-02T10:05:04.073Z,17.40
2023-05-02T10:06:04.240Z,16.10
2023-05-02T10:07:04.403Z,15.90
2023-05-02T10:08:04.524Z,16.20
2023-05-02T10:09:04.915Z,16.00
2023-05-02T10:10:04.290Z,15.00
2023-05-02T10:11:04.977Z,15.70
2023-05-02T10:12:04.250Z,15.90
2023-05-02T10:13:03.770Z,16.60
2023-05-02T10:14:04.338Z,14.10
2023-05-02T10:15:04.781Z,13.70
2023-05-02T10:16:04.308Z,14.20
2023-05-02T10:17:04.318Z,13.20
2023-05-02T10:18:04.951Z,14.00
2023-05-02T10:19:03.680Z,16.10
2023-05-02T10:20:04.938Z,15.30
2023-05-02T10:21:04.345Z,16.00
2023-05-02T10:22:04.110Z,14.50
2023-05-02T10:23:04.979Z,14.00
2023-05-02T10:24:04.367Z,14.20
2023-05-02T10:25:04.381Z,15.30
2023-05-02T10:26:04.284Z,14.70
2023-05-02T10:27:04.176Z,13.60
2023-05-02T10:28:04.543Z,14.00
2023-05-02T10:29:04.306Z,12.90
2023-05-02T10:30:04.037Z,12.60
2023-05-02T10:31:04.559Z,12.40
2023-05-02T10:32:04.738Z,12.80
2023-05-02T10:33:04.908Z,13.50
2023-05-02T10:34:03.926Z,14.70
2023-05-02T10:35:03.541Z,14.10
2023-05-02T10:36:04.503Z,10.70
2023-05-02T10:37:04.228Z,12.10
2023-05-02T10:38:04.961Z,12.90
2023-05-02T10:39:04.139Z,13.90
2023-05-02T10:40:04.656Z,14.10
2023-05-02T10:41:04.289Z,12.30
2023-05-02T10:42:04.670Z,12.70
2023-05-02T10:43:05.730Z,13.10
2023-05-02T10:44:04.310Z,11.90
2023-05-02T10:45:04.178Z,10.90
2023-05-02T10:46:04.586Z,12.50
2023-05-02T10:47:02.421Z,12.30
2023-05-02T10:48:02.247Z,14.20
2023-05-02T10:49:02.194Z,13.00
2023-05-02T10:50:02.209Z,12.20
2023-05-02T10:51:02.180Z,10.30
2023-05-02T10:52:02.151Z,12.60
2023-05-02T10:53:02.162Z,13.60
2023-05-02T10:54:02.132Z,13.70
2023-05-02T10:55:02.252Z,13.70
2023-05-02T10:56:02.103Z,13.40
2023-05-02T10:57:02.094Z,12.40
2023-05-02T10:58:02.094Z,11.00
2023-05-02T10:59:02.090Z,12.20
2023-05-02T11:00:02.054Z,12.50
2023-05-02T11:01:02.105Z,11.50
2023-05-02T11:02:02.792Z,10.20
2023-05-02T11:03:02.423Z,12.20
2023-05-02T11:04:01.995Z,12.90
2023-05-02T11:05:02.380Z,14.90
2023-05-02T11:06:02.004Z,11.40
2023-05-02T11:07:02.019Z,11.10
2023-05-02T11:08:01.962Z,12.90
2023-05-02T11:09:01.926Z,11.30
2023-05-02T11:10:01.917Z,10.70
2023-05-02T11:11:01.995Z,10.20
2023-05-02T11:12:01.894Z,13.60
2023-05-02T11:13:01.914Z,12.80
2023-05-02T11:14:01.862Z,13.30
2023-05-02T11:15:02.053Z,13.20
2023-05-02T11:16:01.909Z,11.50
2023-05-02T11:17:01.881Z,12.20
2023-05-02T11:18:01.894Z,11.10
2023-05-02T11:19:01.793Z,11.70
2023-05-02T11:20:01.801Z,10.10
2023-05-02T11:21:01.781Z,11.30
2023-05-02T11:22:01.767Z,11.70
2023-05-02T11:23:01.770Z,11.10
2023-05-02T11:24:01.736Z,9.80
2023-05-02T11:25:02.135Z,12.10
2023-05-02T11:26:01.719Z,10.40
2023-05-02T11:27:01.701Z,10.00
2023-05-02T11:28:01.695Z,11.00
2023-05-02T11:29:01.676Z,10.30
2023-05-02T11:30:01.656Z,11.60
2023-05-02T11:31:01.660Z,11.10
2023-05-02T11:32:01.837Z,10.70
2023-05-02T11:33:01.654Z,11.10
2023-05-02T11:34:01.603Z,11.40
2023-05-02T11:35:01.888Z,10.00
2023-05-02T11:36:01.623Z,8.80
2023-05-02T11:37:01.562Z,9.90
2023-05-02T11:38:02.254Z,9.20
2023-05-02T11:39:04.456Z,9.00
2023-05-02T11:40:04.449Z,10.20
2023-05-02T11:41:01.509Z,9.60
2023-05-02T11:42:01.513Z,10.40
2023-05-02T11:43:01.522Z,10.00
2023-05-02T11:44:01.485Z,10.60
2023-05-02T11:45:01.838Z,10.10
2023-05-02T11:46:01.948Z,9.40
2023-05-02T11:47:01.449Z,9.60
2023-05-02T11:48:01.527Z,10.50
2023-05-02T11:49:01.430Z,9.30
2023-05-02T11:50:01.401Z,9.40
2023-05-02T11:51:01.383Z,9.70
2023-05-02T11:52:01.366Z,10.70
2023-05-02T11:53:01.400Z,8.90
2023-05-02T11:54:01.362Z,8.30
2023-05-02T11:55:01.603Z,8.40
2023-05-02T11:56:01.325Z,9.80
2023-05-02T11:57:01.309Z,10.20
2023-05-02T11:58:01.310Z,8.10
2023-05-02T11:59:01.294Z,9.20
2023-05-02T12:00:01.268Z,9.50
2023-05-02T12:01:01.263Z,8.80
2023-05-02T12:02:01.251Z,9.00
2023-05-02T12:03:03.908Z,10.10
2023-05-02T12:04:01.787Z,10.50
2023-05-02T12:05:01.414Z,8.50
2023-05-02T12:06:03.311Z,9.20
2023-05-02T12:07:02.782Z,8.20
2023-05-02T12:08:02.922Z,7.70
2023-05-02T12:09:01.144Z,8.50
2023-05-02T12:10:01.126Z,8.50
2023-05-02T12:11:01.136Z,8.80
2023-05-02T12:12:01.119Z,9.30
2023-05-02T12:13:01.091Z,7.80
2023-05-02T12:14:01.098Z,9.60
2023-05-02T12:15:01.217Z,9.00
2023-05-02T12:16:01.107Z,7.90
2023-05-02T12:17:01.048Z,9.20
2023-05-02T12:18:01.096Z,9.50
2023-05-02T12:19:01.090Z,8.80
2023-05-02T12:20:01.053Z,8.50
2023-05-02T12:21:00.989Z,7.90
2023-05-02T12:22:00.980Z,7.80
2023-05-02T12:23:00.983Z,7.90
2023-05-02T12:24:00.960Z,8.90
2023-05-02T12:25:02.449Z,8.20
2023-05-02T12:26:00.935Z,8.10
2023-05-02T12:27:00.900Z,5.30
2023-05-02T12:28:00.938Z,7.70
2023-05-02T12:29:00.915Z,6.10
2023-05-02T12:30:01.085Z,5.60
2023-05-02T12:31:00.876Z,4.40
2023-05-02T12:32:00.975Z,6.40
2023-05-02T12:33:00.874Z,6.40
2023-05-02T12:34:00.888Z,6.20
2023-05-02T12:35:00.824Z,7.20
2023-05-02T12:36:00.786Z,5.30
2023-05-02T12:37:00.778Z,7.30
2023-05-02T12:38:00.797Z,5.30
2023-05-02T12:39:00.763Z,5.40
2023-05-02T12:40:01.087Z,6.20
